< < Back
Terminal Aerodrome Forecast


Current Version              Previous Versions:   1  2  3  4  5  6  7  8  9  

Terminal Aerodrome Forecast

305
FTUS42 KGSP 221700
TAFHKY
TAF
KHKY 221731Z 2218/2318 34011G18KT P6SM FEW060 FEW250
     FM230400 33006KT P6SM SKC=



Latest METAR

231
SAUS70 KWBC 231600 RRJ
MTRHKY
METAR KHKY 231553Z VRB04KT 10SM CLR 16/04 A3008 RMK AO2 SLP173
T01560039


USA.gov is the U.S. government's official web portal to all federal, state and local government web resources and services.